sensor_id;sensor_type;location;lat;lon;timestamp;temperature;humidity
23347;DHT22;36852;45.466;11.066;2023-01-20T00:02:23;5.80;99.90
23347;DHT22;36852;45.466;11.066;2023-01-20T00:04:51;5.70;99.90
23347;DHT22;36852;45.466;11.066;2023-01-20T00:07:20;5.70;99.90
23347;DHT22;36852;45.466;11.066;2023-01-20T00:12:30;5.60;99.90
23347;DHT22;36852;45.466;11.066;2023-01-20T00:14:59;5.70;99.90
23347;DHT22;36852;45.466;11.066;2023-01-20T00:17:28;5.70;99.90
23347;DHT22;36852;45.466;11.066;2023-01-20T00:19:55;5.70;99.90
23347;DHT22;36852;45.466;11.066;2023-01-20T00:22:26;5.70;99.90
23347;DHT22;36852;45.466;11.066;2023-01-20T00:24:54;5.70;99.90
23347;DHT22;36852;45.466;11.066;2023-01-20T00:27:22;5.70;99.90
23347;DHT22;36852;45.466;11.066;2023-01-20T00:30:11;5.70;99.90
23347;DHT22;36852;45.466;11.066;2023-01-20T00:32:39;5.70;99.90
23347;DHT22;36852;45.466;11.066;2023-01-20T00:35:10;5.60;99.90
23347;DHT22;36852;45.466;11.066;2023-01-20T00:40:21;5.60;99.90
23347;DHT22;36852;45.466;11.066;2023-01-20T00:42:49;5.50;99.90
23347;DHT22;36852;45.466;11.066;2023-01-20T00:45:18;5.50;99.90
23347;DHT22;36852;45.466;11.066;2023-01-20T00:50:27;5.50;99.90
23347;DHT22;36852;45.466;11.066;2023-01-20T00:52:55;5.50;99.90
23347;DHT22;36852;45.466;11.066;2023-01-20T00:55:23;5.50;99.90
23347;DHT22;36852;45.466;11.066;2023-01-20T00:57:51;5.50;99.90
23347;DHT22;36852;45.466;11.066;2023-01-20T01:00:19;5.50;99.90
23347;DHT22;36852;45.466;11.066;2023-01-20T01:03:07;5.40;99.90
23347;DHT22;36852;45.466;11.066;2023-01-20T01:05:39;5.40;99.90
23347;DHT22;36852;45.466;11.066;2023-01-20T01:08:08;5.30;99.90
23347;DHT22;36852;45.466;11.066;2023-01-20T01:10:37;5.20;99.90
23347;DHT22;36852;45.466;11.066;2023-01-20T01:13:04;5.20;99.90
23347;DHT22;36852;45.466;11.066;2023-01-20T01:15:32;5.20;99.90
23347;DHT22;36852;45.466;11.066;2023-01-20T01:18:00;5.20;99.90
23347;DHT22;36852;45.466;11.066;2023-01-20T01:20:29;5.20;99.90
23347;DHT22;36852;45.466;11.066;2023-01-20T01:22:58;5.20;99.90
23347;DHT22;36852;45.466;11.066;2023-01-20T01:25:26;5.30;99.90
23347;DHT22;36852;45.466;11.066;2023-01-20T01:27:54;5.30;99.90
23347;DHT22;36852;45.466;11.066;2023-01-20T01:30:31;5.30;99.90
23347;DHT22;36852;45.466;11.066;2023-01-20T01:32:59;5.40;99.90
23347;DHT22;36852;45.466;11.066;2023-01-20T01:35:27;5.40;99.90
23347;DHT22;36852;45.466;11.066;2023-01-20T01:40:40;5.40;99.90
23347;DHT22;36852;45.466;11.066;2023-01-20T01:45:58;5.40;99.90
23347;DHT22;36852;45.466;11.066;2023-01-20T01:48:39;5.40;99.90
23347;DHT22;36852;45.466;11.066;2023-01-20T01:51:12;5.30;99.90
23347;DHT22;36852;45.466;11.066;2023-01-20T01:53:42;5.30;99.90
23347;DHT22;36852;45.466;11.066;2023-01-20T01:56:12;5.30;99.90
23347;DHT22;36852;45.466;11.066;2023-01-20T01:58:43;5.30;99.90
23347;DHT22;36852;45.466;11.066;2023-01-20T02:01:12;5.30;99.90
23347;DHT22;36852;45.466;11.066;2023-01-20T02:06:26;5.20;99.90
23347;DHT22;36852;45.466;11.066;2023-01-20T02:08:55;5.20;99.90
23347;DHT22;36852;45.466;11.066;2023-01-20T02:11:23;5.20;99.90
23347;DHT22;36852;45.466;11.066;2023-01-20T02:13:51;5.20;99.90
23347;DHT22;36852;45.466;11.066;2023-01-20T02:19:05;5.20;99.90
23347;DHT22;36852;45.466;11.066;2023-01-20T02:21:47;5.20;99.90
23347;DHT22;36852;45.466;11.066;2023-01-20T02:27:04;5.20;99.90
23347;DHT22;36852;45.466;11.066;2023-01-20T02:32:28;5.10;99.90
23347;DHT22;36852;45.466;11.066;2023-01-20T02:38:03;5.20;99.90
23347;DHT22;36852;45.466;11.066;2023-01-20T02:46:26;5.10;99.90
23347;DHT22;36852;45.466;11.066;2023-01-20T02:49:19;5.10;99.90
23347;DHT22;36852;45.466;11.066;2023-01-20T02:51:35;5.20;99.90
23347;DHT22;36852;45.466;11.066;2023-01-20T02:54:02;5.10;99.90
23347;DHT22;36852;45.466;11.066;2023-01-20T02:56:30;5.10;99.90
23347;DHT22;36852;45.466;11.066;2023-01-20T03:04:19;5.20;99.90
23347;DHT22;36852;45.466;11.066;2023-01-20T03:06:50;5.20;99.90
23347;DHT22;36852;45.466;11.066;2023-01-20T03:09:22;5.20;99.90
23347;DHT22;36852;45.466;11.066;2023-01-20T03:11:55;5.20;99.90
23347;DHT22;36852;45.466;11.066;2023-01-20T03:14:23;5.20;99.90
23347;DHT22;36852;45.466;11.066;2023-01-20T03:16:51;5.30;99.90
23347;DHT22;36852;45.466;11.066;2023-01-20T03:19:19;5.30;99.90
23347;DHT22;36852;45.466;11.066;2023-01-20T03:21:47;5.30;99.90
23347;DHT22;36852;45.466;11.066;2023-01-20T03:24:15;5.30;99.90
23347;DHT22;36852;45.466;11.066;2023-01-20T03:26:43;5.30;99.90
23347;DHT22;36852;45.466;11.066;2023-01-20T03:29:14;5.30;99.90
23347;DHT22;36852;45.466;11.066;2023-01-20T03:31:47;5.30;99.90
23347;DHT22;36852;45.466;11.066;2023-01-20T03:37:03;5.40;99.90
23347;DHT22;36852;45.466;11.066;2023-01-20T03:39:32;5.40;99.90
23347;DHT22;36852;45.466;11.066;2023-01-20T03:45:14;5.40;99.90
23347;DHT22;36852;45.466;11.066;2023-01-20T03:50:48;5.40;99.90
23347;DHT22;36852;45.466;11.066;2023-01-20T03:53:29;5.30;99.90
23347;DHT22;36852;45.466;11.066;2023-01-20T03:56:15;5.30;99.90
23347;DHT22;36852;45.466;11.066;2023-01-20T03:58:45;5.40;99.90
23347;DHT22;36852;45.466;11.066;2023-01-20T04:01:22;5.40;99.90
23347;DHT22;36852;45.466;11.066;2023-01-20T04:03:52;5.30;99.90
23347;DHT22;36852;45.466;11.066;2023-01-20T04:09:08;5.40;99.90
23347;DHT22;36852;45.466;11.066;2023-01-20T04:11:38;5.30;99.90
23347;DHT22;36852;45.466;11.066;2023-01-20T04:14:09;5.40;99.90
23347;DHT22;36852;45.466;11.066;2023-01-20T04:19:20;5.30;99.90
23347;DHT22;36852;45.466;11.066;2023-01-20T04:22:02;5.40;99.90
23347;DHT22;36852;45.466;11.066;2023-01-20T04:24:36;5.30;99.90
23347;DHT22;36852;45.466;11.066;2023-01-20T04:29:42;5.30;99.90
23347;DHT22;36852;45.466;11.066;2023-01-20T04:32:10;5.30;99.90
23347;DHT22;36852;45.466;11.066;2023-01-20T04:34:39;5.20;99.90
23347;DHT22;36852;45.466;11.066;2023-01-20T04:37:08;5.20;99.90
23347;DHT22;36852;45.466;11.066;2023-01-20T04:39:36;5.20;99.90
23347;DHT22;36852;45.466;11.066;2023-01-20T04:42:04;5.20;99.90
23347;DHT22;36852;45.466;11.066;2023-01-20T04:44:32;5.20;99.90
23347;DHT22;36852;45.466;11.066;2023-01-20T04:47:00;5.20;99.90
23347;DHT22;36852;45.466;11.066;2023-01-20T04:49:28;5.20;99.90
23347;DHT22;36852;45.466;11.066;2023-01-20T04:51:56;5.20;99.90
23347;DHT22;36852;45.466;11.066;2023-01-20T04:54:24;5.10;99.90
23347;DHT22;36852;45.466;11.066;2023-01-20T04:56:52;5.20;99.90
23347;DHT22;36852;45.466;11.066;2023-01-20T04:59:20;5.10;99.90
23347;DHT22;36852;45.466;11.066;2023-01-20T05:01:49;5.10;99.90
23347;DHT22;36852;45.466;11.066;2023-01-20T05:04:17;5.20;99.90
23347;DHT22;36852;45.466;11.066;2023-01-20T05:06:45;5.20;99.90
23347;DHT22;36852;45.466;11.066;2023-01-20T05:09:16;5.20;99.90
23347;DHT22;36852;45.466;11.066;2023-01-20T05:11:43;5.20;99.90
23347;DHT22;36852;45.466;11.066;2023-01-20T05:14:12;5.20;99.90
23347;DHT22;36852;45.466;11.066;2023-01-20T05:16:40;5.20;99.90
23347;DHT22;36852;45.466;11.066;2023-01-20T05:19:10;5.20;99.90
23347;DHT22;36852;45.466;11.066;2023-01-20T05:21:38;5.20;99.90
23347;DHT22;36852;45.466;11.066;2023-01-20T05:24:06;5.20;99.90
23347;DHT22;36852;45.466;11.066;2023-01-20T05:26:35;5.20;99.90
23347;DHT22;36852;45.466;11.066;2023-01-20T05:29:06;5.20;99.90
23347;DHT22;36852;45.466;11.066;2023-01-20T05:31:35;5.20;99.90
23347;DHT22;36852;45.466;11.066;2023-01-20T05:34:05;5.10;99.90
23347;DHT22;36852;45.466;11.066;2023-01-20T05:36:33;5.10;99.90
23347;DHT22;36852;45.466;11.066;2023-01-20T05:39:01;5.10;99.90
23347;DHT22;36852;45.466;11.066;2023-01-20T05:41:28;5.10;99.90
23347;DHT22;36852;45.466;11.066;2023-01-20T05:43:57;5.10;99.90
23347;DHT22;36852;45.466;11.066;2023-01-20T05:46:27;5.20;99.90
23347;DHT22;36852;45.466;11.066;2023-01-20T05:48:55;5.20;99.90
23347;DHT22;36852;45.466;11.066;2023-01-20T05:51:23;5.10;99.90
23347;DHT22;36852;45.466;11.066;2023-01-20T05:53:51;5.20;99.90
23347;DHT22;36852;45.466;11.066;2023-01-20T05:56:20;5.20;99.90
23347;DHT22;36852;45.466;11.066;2023-01-20T05:58:47;5.20;99.90
23347;DHT22;36852;45.466;11.066;2023-01-20T06:01:16;5.20;99.90
23347;DHT22;36852;45.466;11.066;2023-01-20T06:03:44;5.20;99.90
23347;DHT22;36852;45.466;11.066;2023-01-20T06:06:12;5.10;99.90
23347;DHT22;36852;45.466;11.066;2023-01-20T06:08:44;5.10;99.90
23347;DHT22;36852;45.466;11.066;2023-01-20T06:11:12;5.10;99.90
23347;DHT22;36852;45.466;11.066;2023-01-20T06:13:41;5.20;99.90
23347;DHT22;36852;45.466;11.066;2023-01-20T06:16:10;5.20;99.90
23347;DHT22;36852;45.466;11.066;2023-01-20T06:18:38;5.20;99.90
23347;DHT22;36852;45.466;11.066;2023-01-20T06:21:05;5.20;99.90
23347;DHT22;36852;45.466;11.066;2023-01-20T06:23:33;5.20;99.90
23347;DHT22;36852;45.466;11.066;2023-01-20T06:26:07;5.10;99.90
23347;DHT22;36852;45.466;11.066;2023-01-20T06:28:38;5.10;99.90
23347;DHT22;36852;45.466;11.066;2023-01-20T06:31:13;5.10;99.90
23347;DHT22;36852;45.466;11.066;2023-01-20T06:33:42;5.10;99.90
23347;DHT22;36852;45.466;11.066;2023-01-20T06:36:12;5.10;99.90
23347;DHT22;36852;45.466;11.066;2023-01-20T06:38:44;5.10;99.90
23347;DHT22;36852;45.466;11.066;2023-01-20T06:41:14;5.10;99.90
23347;DHT22;36852;45.466;11.066;2023-01-20T06:46:26;5.10;99.90
23347;DHT22;36852;45.466;11.066;2023-01-20T06:48:53;5.10;99.90
23347;DHT22;36852;45.466;11.066;2023-01-20T06:51:28;5.10;99.90
23347;DHT22;36852;45.466;11.066;2023-01-20T06:53:56;5.10;99.90
23347;DHT22;36852;45.466;11.066;2023-01-20T06:56:24;5.10;99.90
23347;DHT22;36852;45.466;11.066;2023-01-20T06:58:52;5.10;99.90
23347;DHT22;36852;45.466;11.066;2023-01-20T07:01:25;5.10;99.90
23347;DHT22;36852;45.466;11.066;2023-01-20T07:03:54;5.20;99.90
23347;DHT22;36852;45.466;11.066;2023-01-20T07:09:13;5.10;99.90
23347;DHT22;36852;45.466;11.066;2023-01-20T07:11:41;5.10;99.90
23347;DHT22;36852;45.466;11.066;2023-01-20T07:14:08;5.20;99.90
23347;DHT22;36852;45.466;11.066;2023-01-20T07:16:37;5.10;99.90
23347;DHT22;36852;45.466;11.066;2023-01-20T07:19:06;5.10;99.90
23347;DHT22;36852;45.466;11.066;2023-01-20T07:21:34;5.20;99.90
23347;DHT22;36852;45.466;11.066;2023-01-20T07:24:07;5.20;99.90
23347;DHT22;36852;45.466;11.066;2023-01-20T07:26:36;5.20;99.90
23347;DHT22;36852;45.466;11.066;2023-01-20T07:29:03;5.20;99.90
23347;DHT22;36852;45.466;11.066;2023-01-20T07:31:32;5.20;99.90
23347;DHT22;36852;45.466;11.066;2023-01-20T07:34:00;5.20;99.90
23347;DHT22;36852;45.466;11.066;2023-01-20T07:36:27;5.20;99.90
23347;DHT22;36852;45.466;11.066;2023-01-20T07:38:56;5.20;99.90
23347;DHT22;36852;45.466;11.066;2023-01-20T07:41:24;5.20;99.90
23347;DHT22;36852;45.466;11.066;2023-01-20T07:43:52;5.30;99.90
23347;DHT22;36852;45.466;11.066;2023-01-20T07:46:20;5.30;99.90
23347;DHT22;36852;45.466;11.066;2023-01-20T07:48:48;5.30;99.90
23347;DHT22;36852;45.466;11.066;2023-01-20T07:51:16;5.40;99.90
23347;DHT22;36852;45.466;11.066;2023-01-20T07:53:46;5.40;99.90
23347;DHT22;36852;45.466;11.066;2023-01-20T07:56:23;5.40;99.90
23347;DHT22;36852;45.466;11.066;2023-01-20T07:58:52;5.40;99.90
23347;DHT22;36852;45.466;11.066;2023-01-20T08:01:23;5.40;99.90
23347;DHT22;36852;45.466;11.066;2023-01-20T08:03:52;5.40;99.90
23347;DHT22;36852;45.466;11.066;2023-01-20T08:06:22;5.40;99.90
23347;DHT22;36852;45.466;11.066;2023-01-20T08:08:51;5.40;99.90
23347;DHT22;36852;45.466;11.066;2023-01-20T08:11:20;5.50;99.90
23347;DHT22;36852;45.466;11.066;2023-01-20T08:13:49;5.50;99.90
23347;DHT22;36852;45.466;11.066;2023-01-20T08:16:17;5.60;99.90
23347;DHT22;36852;45.466;11.066;2023-01-20T08:18:45;5.60;99.90
23347;DHT22;36852;45.466;11.066;2023-01-20T08:21:19;5.60;99.90
23347;DHT22;36852;45.466;11.066;2023-01-20T08:23:48;5.70;99.90
23347;DHT22;36852;45.466;11.066;2023-01-20T08:29:08;5.80;99.90
23347;DHT22;36852;45.466;11.066;2023-01-20T08:31:37;5.90;99.90
23347;DHT22;36852;45.466;11.066;2023-01-20T08:34:05;6.00;99.90
23347;DHT22;36852;45.466;11.066;2023-01-20T08:36:35;6.10;99.90
23347;DHT22;36852;45.466;11.066;2023-01-20T08:39:08;6.10;99.90
23347;DHT22;36852;45.466;11.066;2023-01-20T08:41:38;6.20;99.90
23347;DHT22;36852;45.466;11.066;2023-01-20T08:46:54;6.40;99.90
23347;DHT22;36852;45.466;11.066;2023-01-20T08:49:24;6.40;99.90
23347;DHT22;36852;45.466;11.066;2023-01-20T08:51:53;6.50;99.90
23347;DHT22;36852;45.466;11.066;2023-01-20T08:54:22;6.50;99.90
23347;DHT22;36852;45.466;11.066;2023-01-20T08:56:51;6.50;99.90
23347;DHT22;36852;45.466;11.066;2023-01-20T08:59:19;6.50;99.90
23347;DHT22;36852;45.466;11.066;2023-01-20T09:01:51;6.50;99.90
23347;DHT22;36852;45.466;11.066;2023-01-20T09:07:01;6.50;99.90
23347;DHT22;36852;45.466;11.066;2023-01-20T09:09:29;6.60;99.90
23347;DHT22;36852;45.466;11.066;2023-01-20T09:11:57;6.60;99.90
23347;DHT22;36852;45.466;11.066;2023-01-20T09:14:25;6.70;99.90
23347;DHT22;36852;45.466;11.066;2023-01-20T09:16:57;6.70;99.90
23347;DHT22;36852;45.466;11.066;2023-01-20T09:19:25;6.70;99.90
23347;DHT22;36852;45.466;11.066;2023-01-20T09:22:02;6.80;99.90
23347;DHT22;36852;45.466;11.066;2023-01-20T09:24:32;6.80;99.90
23347;DHT22;36852;45.466;11.066;2023-01-20T09:27:02;6.90;99.90
23347;DHT22;36852;45.466;11.066;2023-01-20T09:29:33;7.00;99.90
23347;DHT22;36852;45.466;11.066;2023-01-20T09:32:01;7.00;99.90
23347;DHT22;36852;45.466;11.066;2023-01-20T09:34:30;7.10;99.90
23347;DHT22;36852;45.466;11.066;2023-01-20T09:37:00;7.20;99.90
23347;DHT22;36852;45.466;11.066;2023-01-20T09:39:29;7.30;99.90
23347;DHT22;36852;45.466;11.066;2023-01-20T09:45:43;7.40;99.90
23347;DHT22;36852;45.466;11.066;2023-01-20T09:51:31;7.60;99.90
23347;DHT22;36852;45.466;11.066;2023-01-20T09:54:21;7.70;99.90
23347;DHT22;36852;45.466;11.066;2023-01-20T09:56:51;7.80;99.90
23347;DHT22;36852;45.466;11.066;2023-01-20T09:59:26;7.90;99.90
23347;DHT22;36852;45.466;11.066;2023-01-20T10:01:59;8.00;99.90
23347;DHT22;36852;45.466;11.066;2023-01-20T10:04:29;8.20;99.90
23347;DHT22;36852;45.466;11.066;2023-01-20T10:09:58;8.40;99.90
23347;DHT22;36852;45.466;11.066;2023-01-20T10:15:26;8.60;99.90
23347;DHT22;36852;45.466;11.066;2023-01-20T10:18:01;8.60;99.90
23347;DHT22;36852;45.466;11.066;2023-01-20T10:23:54;8.70;99.90
23347;DHT22;36852;45.466;11.066;2023-01-20T10:29:19;8.70;99.90
23347;DHT22;36852;45.466;11.066;2023-01-20T10:31:55;8.70;99.90
23347;DHT22;36852;45.466;11.066;2023-01-20T10:34:22;8.80;99.90
23347;DHT22;36852;45.466;11.066;2023-01-20T10:39:39;8.90;99.90
23347;DHT22;36852;45.466;11.066;2023-01-20T10:42:12;9.00;99.90
23347;DHT22;36852;45.466;11.066;2023-01-20T10:44:40;9.10;99.90
23347;DHT22;36852;45.466;11.066;2023-01-20T10:58:29;9.40;99.90
23347;DHT22;36852;45.466;11.066;2023-01-20T11:00:58;9.40;99.90
23347;DHT22;36852;45.466;11.066;2023-01-20T11:03:31;9.40;99.90
23347;DHT22;36852;45.466;11.066;2023-01-20T11:05:59;9.40;99.90
23347;DHT22;36852;45.466;11.066;2023-01-20T11:08:28;9.40;99.80
23347;DHT22;36852;45.466;11.066;2023-01-20T11:10:58;9.40;99.90
23347;DHT22;36852;45.466;11.066;2023-01-20T11:13:27;9.50;99.90
23347;DHT22;36852;45.466;11.066;2023-01-20T11:15:58;9.50;99.90
23347;DHT22;36852;45.466;11.066;2023-01-20T11:21:24;9.50;99.80
23347;DHT22;36852;45.466;11.066;2023-01-20T11:23:54;9.60;99.30
23347;DHT22;36852;45.466;11.066;2023-01-20T11:26:33;9.50;98.60
23347;DHT22;36852;45.466;11.066;2023-01-20T11:31:44;9.50;97.70
23347;DHT22;36852;45.466;11.066;2023-01-20T11:34:34;9.40;97.50
23347;DHT22;36852;45.466;11.066;2023-01-20T11:37:17;9.40;97.60
23347;DHT22;36852;45.466;11.066;2023-01-20T11:40:14;9.30;97.80
23347;DHT22;36852;45.466;11.066;2023-01-20T11:42:40;9.30;99.00
23347;DHT22;36852;45.466;11.066;2023-01-20T11:45:03;9.30;99.60
23347;DHT22;36852;45.466;11.066;2023-01-20T11:47:35;9.40;99.50
23347;DHT22;36852;45.466;11.066;2023-01-20T11:52:40;9.50;99.80
23347;DHT22;36852;45.466;11.066;2023-01-20T11:55:23;9.60;99.90
23347;DHT22;36852;45.466;11.066;2023-01-20T11:57:56;9.70;99.90
23347;DHT22;36852;45.466;11.066;2023-01-20T12:00:28;9.80;99.20
23347;DHT22;36852;45.466;11.066;2023-01-20T12:09:14;10.00;98.00
23347;DHT22;36852;45.466;11.066;2023-01-20T12:11:41;10.10;98.30
23347;DHT22;36852;45.466;11.066;2023-01-20T12:20:22;10.50;98.60
23347;DHT22;36852;45.466;11.066;2023-01-20T12:25:53;11.00;97.00
23347;DHT22;36852;45.466;11.066;2023-01-20T12:31:11;11.30;94.70
23347;DHT22;36852;45.466;11.066;2023-01-20T12:33:48;11.40;95.20
23347;DHT22;36852;45.466;11.066;2023-01-20T12:47:48;12.80;91.20
23347;DHT22;36852;45.466;11.066;2023-01-20T12:53:47;12.70;86.70
23347;DHT22;36852;45.466;11.066;2023-01-20T13:07:17;13.20;85.60
23347;DHT22;36852;45.466;11.066;2023-01-20T13:12:55;13.30;83.20
23347;DHT22;36852;45.466;11.066;2023-01-20T13:15:27;13.30;82.70
23347;DHT22;36852;45.466;11.066;2023-01-20T13:18:27;13.40;85.10
23347;DHT22;36852;45.466;11.066;2023-01-20T13:20:56;13.30;82.20
23347;DHT22;36852;45.466;11.066;2023-01-20T13:23:32;13.30;86.20
23347;DHT22;36852;45.466;11.066;2023-01-20T13:25:59;13.60;86.50
23347;DHT22;36852;45.466;11.066;2023-01-20T13:28:28;13.90;84.80
23347;DHT22;36852;45.466;11.066;2023-01-20T13:30:58;14.20;84.70
23347;DHT22;36852;45.466;11.066;2023-01-20T13:33:38;14.60;81.70
23347;DHT22;36852;45.466;11.066;2023-01-20T13:36:15;14.90;79.10
23347;DHT22;36852;45.466;11.066;2023-01-20T13:39:32;15.20;78.00
23347;DHT22;36852;45.466;11.066;2023-01-20T13:41:46;15.60;75.50
23347;DHT22;36852;45.466;11.066;2023-01-20T13:44:38;15.80;73.80
23347;DHT22;36852;45.466;11.066;2023-01-20T13:47:07;16.00;72.50
23347;DHT22;36852;45.466;11.066;2023-01-20T13:49:52;16.60;70.60
23347;DHT22;36852;45.466;11.066;2023-01-20T13:58:31;17.20;62.40
23347;DHT22;36852;45.466;11.066;2023-01-20T14:01:02;16.80;63.50
23347;DHT22;36852;45.466;11.066;2023-01-20T14:03:33;16.40;63.30
23347;DHT22;36852;45.466;11.066;2023-01-20T14:08:47;17.10;64.30
23347;DHT22;36852;45.466;11.066;2023-01-20T14:11:18;18.30;60.60
23347;DHT22;36852;45.466;11.066;2023-01-20T14:13:56;19.00;57.50
23347;DHT22;36852;45.466;11.066;2023-01-20T14:16:33;19.90;56.40
23347;DHT22;36852;45.466;11.066;2023-01-20T14:22:00;22.10;48.70
23347;DHT22;36852;45.466;11.066;2023-01-20T14:24:32;23.40;45.90
23347;DHT22;36852;45.466;11.066;2023-01-20T14:27:18;24.10;43.30
23347;DHT22;36852;45.466;11.066;2023-01-20T14:29:45;24.80;40.70
23347;DHT22;36852;45.466;11.066;2023-01-20T14:32:25;25.40;38.40
23347;DHT22;36852;45.466;11.066;2023-01-20T14:34:55;26.10;36.90
23347;DHT22;36852;45.466;11.066;2023-01-20T14:37:32;26.50;35.50
23347;DHT22;36852;45.466;11.066;2023-01-20T14:42:53;27.00;32.70
23347;DHT22;36852;45.466;11.066;2023-01-20T14:45:19;27.40;32.10
23347;DHT22;36852;45.466;11.066;2023-01-20T14:47:47;27.50;31.10
23347;DHT22;36852;45.466;11.066;2023-01-20T14:50:17;27.20;30.10
23347;DHT22;36852;45.466;11.066;2023-01-20T14:52:46;26.70;30.00
23347;DHT22;36852;45.466;11.066;2023-01-20T14:58:12;26.10;30.50
23347;DHT22;36852;45.466;11.066;2023-01-20T15:00:44;26.10;29.50
23347;DHT22;36852;45.466;11.066;2023-01-20T15:03:18;25.50;29.00
23347;DHT22;36852;45.466;11.066;2023-01-20T15:05:54;25.60;29.80
23347;DHT22;36852;45.466;11.066;2023-01-20T15:19:28;22.30;33.70
23347;DHT22;36852;45.466;11.066;2023-01-20T15:22:15;22.40;33.00
23347;DHT22;36852;45.466;11.066;2023-01-20T15:24:44;22.40;33.50
23347;DHT22;36852;45.466;11.066;2023-01-20T15:27:22;22.60;33.60
23347;DHT22;36852;45.466;11.066;2023-01-20T15:30:10;22.70;33.30
23347;DHT22;36852;45.466;11.066;2023-01-20T15:32:32;22.70;32.90
23347;DHT22;36852;45.466;11.066;2023-01-20T15:35:00;22.40;32.90
23347;DHT22;36852;45.466;11.066;2023-01-20T15:37:30;22.30;33.00
23347;DHT22;36852;45.466;11.066;2023-01-20T15:39:59;22.00;33.10
23347;DHT22;36852;45.466;11.066;2023-01-20T15:42:27;21.40;34.00
23347;DHT22;36852;45.466;11.066;2023-01-20T15:44:55;20.70;35.40
23347;DHT22;36852;45.466;11.066;2023-01-20T15:47:27;20.10;36.10
23347;DHT22;36852;45.466;11.066;2023-01-20T15:49:57;19.40;36.70
23347;DHT22;36852;45.466;11.066;2023-01-20T15:52:25;18.50;38.30
23347;DHT22;36852;45.466;11.066;2023-01-20T15:54:53;17.70;39.20
23347;DHT22;36852;45.466;11.066;2023-01-20T15:57:22;17.00;40.30
23347;DHT22;36852;45.466;11.066;2023-01-20T15:59:50;16.30;42.30
23347;DHT22;36852;45.466;11.066;2023-01-20T16:02:20;15.60;44.20
23347;DHT22;36852;45.466;11.066;2023-01-20T16:04:48;14.90;46.40
23347;DHT22;36852;45.466;11.066;2023-01-20T16:07:18;14.40;47.80
23347;DHT22;36852;45.466;11.066;2023-01-20T16:09:46;13.90;50.30
23347;DHT22;36852;45.466;11.066;2023-01-20T16:12:16;13.50;52.30
23347;DHT22;36852;45.466;11.066;2023-01-20T16:14:44;13.00;54.50
23347;DHT22;36852;45.466;11.066;2023-01-20T16:17:17;12.60;56.50
23347;DHT22;36852;45.466;11.066;2023-01-20T16:19:48;12.30;58.30
23347;DHT22;36852;45.466;11.066;2023-01-20T16:22:16;12.00;60.10
23347;DHT22;36852;45.466;11.066;2023-01-20T16:24:44;11.70;62.20
23347;DHT22;36852;45.466;11.066;2023-01-20T16:27:21;11.40;64.40
23347;DHT22;36852;45.466;11.066;2023-01-20T16:29:49;11.20;67.00
23347;DHT22;36852;45.466;11.066;2023-01-20T16:32:17;10.90;69.20
23347;DHT22;36852;45.466;11.066;2023-01-20T16:34:48;10.70;71.60
23347;DHT22;36852;45.466;11.066;2023-01-20T16:37:37;10.60;74.00
23347;DHT22;36852;45.466;11.066;2023-01-20T16:40:06;10.40;76.40
23347;DHT22;36852;45.466;11.066;2023-01-20T16:42:34;10.20;79.30
23347;DHT22;36852;45.466;11.066;2023-01-20T16:45:03;10.10;81.80
23347;DHT22;36852;45.466;11.066;2023-01-20T16:47:31;10.00;84.50
23347;DHT22;36852;45.466;11.066;2023-01-20T16:50:00;9.90;87.00
23347;DHT22;36852;45.466;11.066;2023-01-20T16:52:28;9.90;88.40
23347;DHT22;36852;45.466;11.066;2023-01-20T16:54:56;9.80;90.00
23347;DHT22;36852;45.466;11.066;2023-01-20T16:57:24;9.70;90.40
23347;DHT22;36852;45.466;11.066;2023-01-20T16:59:54;9.60;91.20
23347;DHT22;36852;45.466;11.066;2023-01-20T17:02:24;9.50;91.70
23347;DHT22;36852;45.466;11.066;2023-01-20T17:04:52;9.50;92.40
23347;DHT22;36852;45.466;11.066;2023-01-20T17:07:23;9.50;92.90
23347;DHT22;36852;45.466;11.066;2023-01-20T17:09:51;9.40;93.40
23347;DHT22;36852;45.466;11.066;2023-01-20T17:12:19;9.40;94.10
23347;DHT22;36852;45.466;11.066;2023-01-20T17:14:48;9.40;94.70
23347;DHT22;36852;45.466;11.066;2023-01-20T17:17:20;9.30;95.20
23347;DHT22;36852;45.466;11.066;2023-01-20T17:19:49;9.30;95.90
23347;DHT22;36852;45.466;11.066;2023-01-20T17:22:17;9.20;96.40
23347;DHT22;36852;45.466;11.066;2023-01-20T17:27:32;9.10;97.50
23347;DHT22;36852;45.466;11.066;2023-01-20T17:30:04;9.10;97.20
23347;DHT22;36852;45.466;11.066;2023-01-20T17:32:34;9.10;97.50
23347;DHT22;36852;45.466;11.066;2023-01-20T17:35:03;9.10;97.90
23347;DHT22;36852;45.466;11.066;2023-01-20T17:37:32;9.10;98.30
23347;DHT22;36852;45.466;11.066;2023-01-20T17:40:20;9.10;98.30
23347;DHT22;36852;45.466;11.066;2023-01-20T17:45:34;9.00;98.80
23347;DHT22;36852;45.466;11.066;2023-01-20T17:50:44;9.00;99.30
23347;DHT22;36852;45.466;11.066;2023-01-20T17:53:12;9.00;99.50
23347;DHT22;36852;45.466;11.066;2023-01-20T17:58:24;9.00;99.70
23347;DHT22;36852;45.466;11.066;2023-01-20T18:00:52;9.00;99.80
23347;DHT22;36852;45.466;11.066;2023-01-20T18:03:20;8.90;99.90
23347;DHT22;36852;45.466;11.066;2023-01-20T18:05:48;8.90;99.90
23347;DHT22;36852;45.466;11.066;2023-01-20T18:08:16;8.90;99.90
23347;DHT22;36852;45.466;11.066;2023-01-20T18:10:45;8.90;99.90
23347;DHT22;36852;45.466;11.066;2023-01-20T18:13:14;8.90;99.90
23347;DHT22;36852;45.466;11.066;2023-01-20T18:15:42;8.90;99.90
23347;DHT22;36852;45.466;11.066;2023-01-20T18:18:11;8.90;99.90
23347;DHT22;36852;45.466;11.066;2023-01-20T18:20:39;8.90;99.90
23347;DHT22;36852;45.466;11.066;2023-01-20T18:23:07;8.80;99.90
23347;DHT22;36852;45.466;11.066;2023-01-20T18:25:35;8.80;99.90
23347;DHT22;36852;45.466;11.066;2023-01-20T18:28:06;8.70;99.90
23347;DHT22;36852;45.466;11.066;2023-01-20T18:30:34;8.70;99.90
23347;DHT22;36852;45.466;11.066;2023-01-20T18:33:03;8.60;99.90
23347;DHT22;36852;45.466;11.066;2023-01-20T18:35:30;8.50;99.90
23347;DHT22;36852;45.466;11.066;2023-01-20T18:38:04;8.50;99.90
23347;DHT22;36852;45.466;11.066;2023-01-20T18:40:32;8.50;99.90
23347;DHT22;36852;45.466;11.066;2023-01-20T18:43:01;8.40;99.90
23347;DHT22;36852;45.466;11.066;2023-01-20T18:45:32;8.40;99.90
23347;DHT22;36852;45.466;11.066;2023-01-20T18:48:01;8.40;99.90
23347;DHT22;36852;45.466;11.066;2023-01-20T18:50:28;8.30;99.90
23347;DHT22;36852;45.466;11.066;2023-01-20T18:52:56;8.30;99.90
23347;DHT22;36852;45.466;11.066;2023-01-20T18:55:35;8.20;99.90
23347;DHT22;36852;45.466;11.066;2023-01-20T18:58:03;8.20;99.90
23347;DHT22;36852;45.466;11.066;2023-01-20T19:00:31;8.10;99.90
23347;DHT22;36852;45.466;11.066;2023-01-20T19:03:00;8.10;99.90
23347;DHT22;36852;45.466;11.066;2023-01-20T19:05:30;8.00;99.80
23347;DHT22;36852;45.466;11.066;2023-01-20T19:07:58;8.00;99.80